Saba, Netherlands Antilles
Current Conditions -  °F | °C
As of 6:00 AM on Thursday 18 Dec 2014 (Local Time) from TNCM Reporting Station
Broken Clouds Broken Clouds  
Wind Chill: 73°   Ceiling: 3800
Heat Index: 73°   Visibility: 6mi
Dew Point: 68°   Wind: 15mph
Humidity: 83%   Direction: 50°NE
Pressure: 29.97"   Gusts: NA
Location:  17.64°N, 63.23°W
Report Text: TNCM 181000Z 05013KT 9999 FEW017 BKN038 23/20 Q1015 A2998 NOSIG
Loading
Personal Weather Stations






























Interactive Weather Map New forecast layout! Learn more

10-Day Weather Forecast

Advertisements
Track Severe Weather on mobile